sensor_id;sensor_type;location;lat;lon;timestamp;temperature;humidity
75838;SHT30;64480;52.040;113.502;2022-11-09T00:04:33;-1.49;48.64
75838;SHT30;64480;52.040;113.502;2022-11-09T00:08:57;-1.54;49.63
75838;SHT30;64480;52.040;113.502;2022-11-09T00:13:12;-1.41;49.76
75838;SHT30;64480;52.040;113.502;2022-11-09T00:16:53;-1.41;48.22
75838;SHT30;64480;52.040;113.502;2022-11-09T00:21:10;-1.31;48.09
75838;SHT30;64480;52.040;113.502;2022-11-09T00:28:27;-1.28;48.33
75838;SHT30;64480;52.040;113.502;2022-11-09T00:31:49;-1.27;47.65
75838;SHT30;64480;52.040;113.502;2022-11-09T00:34:58;-1.31;48.17
75838;SHT30;64480;52.040;113.502;2022-11-09T00:38:26;-1.21;48.26
75838;SHT30;64480;52.040;113.502;2022-11-09T00:42:17;-1.14;48.56
75838;SHT30;64480;52.040;113.502;2022-11-09T00:50:08;-1.15;47.18
75838;SHT30;64480;52.040;113.502;2022-11-09T00:53:11;-1.17;46.80
75838;SHT30;64480;52.040;113.502;2022-11-09T00:56:15;-1.25;46.93
75838;SHT30;64480;52.040;113.502;2022-11-09T00:59:47;-1.31;47.09
75838;SHT30;64480;52.040;113.502;2022-11-09T01:09:17;-1.24;46.53
75838;SHT30;64480;52.040;113.502;2022-11-09T01:12:27;-1.25;46.74
75838;SHT30;64480;52.040;113.502;2022-11-09T01:19:06;-1.49;47.07
75838;SHT30;64480;52.040;113.502;2022-11-09T01:35:16;-1.22;46.19
75838;SHT30;64480;52.040;113.502;2022-11-09T01:48:05;-0.87;46.15
75838;SHT30;64480;52.040;113.502;2022-11-09T01:51:18;-0.90;44.75
75838;SHT30;64480;52.040;113.502;2022-11-09T01:54:32;-0.90;45.08
75838;SHT30;64480;52.040;113.502;2022-11-09T02:11:24;-0.68;44.72
75838;SHT30;64480;52.040;113.502;2022-11-09T02:14:35;-0.75;44.41
75838;SHT30;64480;52.040;113.502;2022-11-09T02:18:08;-0.77;45.27
75838;SHT30;64480;52.040;113.502;2022-11-09T02:22:19;-0.77;45.06
75838;SHT30;64480;52.040;113.502;2022-11-09T02:26:12;-0.73;45.52
75838;SHT30;64480;52.040;113.502;2022-11-09T02:29:52;-0.66;44.20
75838;SHT30;64480;52.040;113.502;2022-11-09T02:33:04;-0.79;44.30
75838;SHT30;64480;52.040;113.502;2022-11-09T02:36:21;-0.79;44.99
75838;SHT30;64480;52.040;113.502;2022-11-09T02:39:39;-0.72;44.97
75838;SHT30;64480;52.040;113.502;2022-11-09T02:43:04;-0.66;44.36
75838;SHT30;64480;52.040;113.502;2022-11-09T02:46:35;-0.54;44.77
75838;SHT30;64480;52.040;113.502;2022-11-09T02:49:47;-0.34;44.18
75838;SHT30;64480;52.040;113.502;2022-11-09T02:54:04;-0.30;42.73
75838;SHT30;64480;52.040;113.502;2022-11-09T02:57:52;-0.41;42.72
75838;SHT30;64480;52.040;113.502;2022-11-09T03:01:00;-0.38;42.97
75838;SHT30;64480;52.040;113.502;2022-11-09T03:13:44;-0.06;41.78
75838;SHT30;64480;52.040;113.502;2022-11-09T03:26:54;-0.25;41.63
75838;SHT30;64480;52.040;113.502;2022-11-09T03:30:19;-0.25;42.10
75838;SHT30;64480;52.040;113.502;2022-11-09T03:42:43;-0.07;41.27
75838;SHT30;64480;52.040;113.502;2022-11-09T03:45:47;-0.07;40.56
75838;SHT30;64480;52.040;113.502;2022-11-09T04:04:54;0.34;41.34
75838;SHT30;64480;52.040;113.502;2022-11-09T04:12:42;0.35;40.81
75838;SHT30;64480;52.040;113.502;2022-11-09T04:15:59;0.46;40.63
75838;SHT30;64480;52.040;113.502;2022-11-09T04:19:15;0.42;40.30
75838;SHT30;64480;52.040;113.502;2022-11-09T04:22:28;0.45;40.32
75838;SHT30;64480;52.040;113.502;2022-11-09T04:25:41;0.53;41.01
75838;SHT30;64480;52.040;113.502;2022-11-09T04:29:01;0.66;40.50
75838;SHT30;64480;52.040;113.502;2022-11-09T04:32:14;0.58;39.56
75838;SHT30;64480;52.040;113.502;2022-11-09T04:35:35;0.76;39.81
75838;SHT30;64480;52.040;113.502;2022-11-09T04:38:49;0.87;40.49
75838;SHT30;64480;52.040;113.502;2022-11-09T04:42:01;1.03;39.03
75838;SHT30;64480;52.040;113.502;2022-11-09T04:45:37;1.04;39.14
75838;SHT30;64480;52.040;113.502;2022-11-09T04:48:42;0.77;39.56
75838;SHT30;64480;52.040;113.502;2022-11-09T04:51:52;0.81;40.73
75838;SHT30;64480;52.040;113.502;2022-11-09T04:58:57;0.98;39.94
75838;SHT30;64480;52.040;113.502;2022-11-09T05:02:00;1.07;39.98
75838;SHT30;64480;52.040;113.502;2022-11-09T05:05:04;1.04;38.72
75838;SHT30;64480;52.040;113.502;2022-11-09T05:08:08;0.94;40.00
75838;SHT30;64480;52.040;113.502;2022-11-09T05:11:15;1.04;39.23
75838;SHT30;64480;52.040;113.502;2022-11-09T05:14:21;1.09;38.18
75838;SHT30;64480;52.040;113.502;2022-11-09T05:17:24;1.04;37.60
75838;SHT30;64480;52.040;113.502;2022-11-09T05:20:28;1.05;37.44
75838;SHT30;64480;52.040;113.502;2022-11-09T05:23:31;1.18;38.67
75838;SHT30;64480;52.040;113.502;2022-11-09T05:26:53;1.27;37.71
75838;SHT30;64480;52.040;113.502;2022-11-09T05:29:57;1.35;36.93
75838;SHT30;64480;52.040;113.502;2022-11-09T05:33:00;1.41;37.37
75838;SHT30;64480;52.040;113.502;2022-11-09T05:36:04;1.52;37.34
75838;SHT30;64480;52.040;113.502;2022-11-09T05:39:07;1.56;36.91
75838;SHT30;64480;52.040;113.502;2022-11-09T05:42:11;1.62;37.23
75838;SHT30;64480;52.040;113.502;2022-11-09T05:45:16;1.64;37.24
75838;SHT30;64480;52.040;113.502;2022-11-09T05:48:46;1.53;38.07
75838;SHT30;64480;52.040;113.502;2022-11-09T05:51:49;1.43;36.84
75838;SHT30;64480;52.040;113.502;2022-11-09T05:54:53;1.42;37.22
75838;SHT30;64480;52.040;113.502;2022-11-09T05:58:21;1.41;36.57
75838;SHT30;64480;52.040;113.502;2022-11-09T06:01:26;1.36;37.76
75838;SHT30;64480;52.040;113.502;2022-11-09T06:04:30;1.31;37.18
75838;SHT30;64480;52.040;113.502;2022-11-09T06:07:33;1.01;37.27
75838;SHT30;64480;52.040;113.502;2022-11-09T06:10:36;0.93;38.21
75838;SHT30;64480;52.040;113.502;2022-11-09T06:13:39;0.81;38.11
75838;SHT30;64480;52.040;113.502;2022-11-09T06:20:35;0.72;38.74
75838;SHT30;64480;52.040;113.502;2022-11-09T06:23:39;0.70;39.35
75838;SHT30;64480;52.040;113.502;2022-11-09T06:26:42;0.69;39.76
75838;SHT30;64480;52.040;113.502;2022-11-09T06:29:45;0.65;40.90
75838;SHT30;64480;52.040;113.502;2022-11-09T06:38:20;0.68;39.02
75838;SHT30;64480;52.040;113.502;2022-11-09T06:41:24;0.84;39.23
75838;SHT30;64480;52.040;113.502;2022-11-09T06:44:27;0.91;39.58
75838;SHT30;64480;52.040;113.502;2022-11-09T06:47:31;0.91;39.41
75838;SHT30;64480;52.040;113.502;2022-11-09T06:50:35;0.81;39.50
75838;SHT30;64480;52.040;113.502;2022-11-09T06:53:42;0.75;39.39
75838;SHT30;64480;52.040;113.502;2022-11-09T06:57:07;0.68;40.25
75838;SHT30;64480;52.040;113.502;2022-11-09T07:00:11;0.66;39.81
75838;SHT30;64480;52.040;113.502;2022-11-09T07:03:59;0.70;40.06
75838;SHT30;64480;52.040;113.502;2022-11-09T07:07:02;0.63;40.64
75838;SHT30;64480;52.040;113.502;2022-11-09T07:10:06;0.61;40.31
75838;SHT30;64480;52.040;113.502;2022-11-09T07:13:15;0.58;40.11
75838;SHT30;64480;52.040;113.502;2022-11-09T07:16:29;0.56;39.77
75838;SHT30;64480;52.040;113.502;2022-11-09T07:19:33;0.56;41.00
75838;SHT30;64480;52.040;113.502;2022-11-09T07:22:38;0.59;40.72
75838;SHT30;64480;52.040;113.502;2022-11-09T07:25:41;0.58;40.64
75838;SHT30;64480;52.040;113.502;2022-11-09T07:28:48;0.58;40.78
75838;SHT30;64480;52.040;113.502;2022-11-09T07:31:51;0.62;40.62
75838;SHT30;64480;52.040;113.502;2022-11-09T07:34:54;0.58;41.04
75838;SHT30;64480;52.040;113.502;2022-11-09T07:38:01;0.59;41.01
75838;SHT30;64480;52.040;113.502;2022-11-09T07:41:05;0.61;41.09
75838;SHT30;64480;52.040;113.502;2022-11-09T07:44:18;0.48;40.66
75838;SHT30;64480;52.040;113.502;2022-11-09T07:47:21;0.41;41.00
75838;SHT30;64480;52.040;113.502;2022-11-09T07:50:37;0.34;41.05
75838;SHT30;64480;52.040;113.502;2022-11-09T07:53:40;0.26;41.79
75838;SHT30;64480;52.040;113.502;2022-11-09T07:56:49;0.17;42.52
75838;SHT30;64480;52.040;113.502;2022-11-09T08:04:16;-0.04;42.66
75838;SHT30;64480;52.040;113.502;2022-11-09T08:07:30;-0.11;43.23
75838;SHT30;64480;52.040;113.502;2022-11-09T08:10:41;-0.17;43.46
75838;SHT30;64480;52.040;113.502;2022-11-09T08:13:53;-0.22;43.66
75838;SHT30;64480;52.040;113.502;2022-11-09T08:17:24;-0.25;43.34
75838;SHT30;64480;52.040;113.502;2022-11-09T08:20:39;-0.31;43.19
75838;SHT30;64480;52.040;113.502;2022-11-09T08:23:54;-0.37;43.59
75838;SHT30;64480;52.040;113.502;2022-11-09T08:26:58;-0.45;43.45
75838;SHT30;64480;52.040;113.502;2022-11-09T08:30:18;-0.49;44.13
75838;SHT30;64480;52.040;113.502;2022-11-09T08:37:18;-0.68;44.40
75838;SHT30;64480;52.040;113.502;2022-11-09T08:40:55;-0.79;44.56
75838;SHT30;64480;52.040;113.502;2022-11-09T08:44:05;-0.87;44.81
75838;SHT30;64480;52.040;113.502;2022-11-09T08:47:17;-0.96;44.99
75838;SHT30;64480;52.040;113.502;2022-11-09T08:50:23;-1.01;45.23
75838;SHT30;64480;52.040;113.502;2022-11-09T08:53:28;-1.07;45.19
75838;SHT30;64480;52.040;113.502;2022-11-09T08:56:31;-1.14;45.23
75838;SHT30;64480;52.040;113.502;2022-11-09T08:59:52;-1.18;45.62
75838;SHT30;64480;52.040;113.502;2022-11-09T09:03:05;-1.30;45.56
75838;SHT30;64480;52.040;113.502;2022-11-09T09:06:18;-1.35;46.08
75838;SHT30;64480;52.040;113.502;2022-11-09T09:09:22;-1.40;46.39
75838;SHT30;64480;52.040;113.502;2022-11-09T09:12:31;-1.40;45.91
75838;SHT30;64480;52.040;113.502;2022-11-09T09:15:54;-1.42;46.22
75838;SHT30;64480;52.040;113.502;2022-11-09T09:19:00;-1.47;46.56
75838;SHT30;64480;52.040;113.502;2022-11-09T09:22:04;-1.51;46.94
75838;SHT30;64480;52.040;113.502;2022-11-09T09:25:33;-1.56;47.81
75838;SHT30;64480;52.040;113.502;2022-11-09T09:28:49;-1.60;48.57
75838;SHT30;64480;52.040;113.502;2022-11-09T09:32:09;-1.65;48.64
75838;SHT30;64480;52.040;113.502;2022-11-09T09:35:15;-1.73;48.91
75838;SHT30;64480;52.040;113.502;2022-11-09T09:38:31;-1.79;48.99
75838;SHT30;64480;52.040;113.502;2022-11-09T09:41:36;-1.86;49.38
75838;SHT30;64480;52.040;113.502;2022-11-09T09:48:29;-1.98;49.37
75838;SHT30;64480;52.040;113.502;2022-11-09T09:51:59;-2.04;49.70
75838;SHT30;64480;52.040;113.502;2022-11-09T09:55:21;-2.15;50.01
75838;SHT30;64480;52.040;113.502;2022-11-09T09:58:28;-2.30;50.68
75838;SHT30;64480;52.040;113.502;2022-11-09T10:01:41;-2.35;51.15
75838;SHT30;64480;52.040;113.502;2022-11-09T10:05:01;-2.49;51.40
75838;SHT30;64480;52.040;113.502;2022-11-09T10:09:20;-2.56;51.74
75838;SHT30;64480;52.040;113.502;2022-11-09T10:12:58;-2.65;52.28
75838;SHT30;64480;52.040;113.502;2022-11-09T10:20:14;-2.86;52.63
75838;SHT30;64480;52.040;113.502;2022-11-09T10:27:01;-3.04;52.65
75838;SHT30;64480;52.040;113.502;2022-11-09T10:30:38;-3.12;52.75
75838;SHT30;64480;52.040;113.502;2022-11-09T10:33:59;-3.19;53.09
75838;SHT30;64480;52.040;113.502;2022-11-09T10:37:23;-3.25;53.96
75838;SHT30;64480;52.040;113.502;2022-11-09T10:43:56;-3.41;54.31
75838;SHT30;64480;52.040;113.502;2022-11-09T10:47:21;-3.48;54.12
75838;SHT30;64480;52.040;113.502;2022-11-09T10:50:50;-3.59;54.34
75838;SHT30;64480;52.040;113.502;2022-11-09T10:57:49;-3.70;54.84
75838;SHT30;64480;52.040;113.502;2022-11-09T11:01:22;-3.76;55.14
75838;SHT30;64480;52.040;113.502;2022-11-09T11:04:43;-3.80;55.30
75838;SHT30;64480;52.040;113.502;2022-11-09T11:08:29;-3.88;55.44
75838;SHT30;64480;52.040;113.502;2022-11-09T11:12:18;-3.94;55.83
75838;SHT30;64480;52.040;113.502;2022-11-09T11:15:42;-3.99;55.83
75838;SHT30;64480;52.040;113.502;2022-11-09T11:19:04;-3.97;55.79
75838;SHT30;64480;52.040;113.502;2022-11-09T11:22:26;-4.05;56.30
75838;SHT30;64480;52.040;113.502;2022-11-09T11:25:56;-4.16;56.00
75838;SHT30;64480;52.040;113.502;2022-11-09T11:32:59;-4.36;56.70
75838;SHT30;64480;52.040;113.502;2022-11-09T11:36:40;-4.42;56.28
75838;SHT30;64480;52.040;113.502;2022-11-09T11:40:19;-4.52;56.36
75838;SHT30;64480;52.040;113.502;2022-11-09T11:47:36;-4.62;56.80
75838;SHT30;64480;52.040;113.502;2022-11-09T11:51:10;-4.59;57.49
75838;SHT30;64480;52.040;113.502;2022-11-09T12:18:33;-5.01;57.36
75838;SHT30;64480;52.040;113.502;2022-11-09T12:22:12;-5.11;58.59
75838;SHT30;64480;52.040;113.502;2022-11-09T12:25:49;-5.26;59.06
75838;SHT30;64480;52.040;113.502;2022-11-09T12:29:21;-5.36;59.43
75838;SHT30;64480;52.040;113.502;2022-11-09T12:36:32;-5.69;59.48
75838;SHT30;64480;52.040;113.502;2022-11-09T12:40:04;-5.81;59.53
75838;SHT30;64480;52.040;113.502;2022-11-09T12:43:54;-5.88;60.03
75838;SHT30;64480;52.040;113.502;2022-11-09T12:47:25;-5.84;60.21
75838;SHT30;64480;52.040;113.502;2022-11-09T12:50:51;-5.80;60.69
75838;SHT30;64480;52.040;113.502;2022-11-09T12:54:17;-5.71;60.14
75838;SHT30;64480;52.040;113.502;2022-11-09T12:57:44;-5.69;59.82
75838;SHT30;64480;52.040;113.502;2022-11-09T13:01:11;-5.78;59.78
75838;SHT30;64480;52.040;113.502;2022-11-09T13:04:32;-5.74;59.79
75838;SHT30;64480;52.040;113.502;2022-11-09T13:07:54;-5.78;59.85
75838;SHT30;64480;52.040;113.502;2022-11-09T13:11:25;-5.80;59.51
75838;SHT30;64480;52.040;113.502;2022-11-09T13:14:52;-6.05;60.45
75838;SHT30;64480;52.040;113.502;2022-11-09T13:36:26;-6.57;61.44
75838;SHT30;64480;52.040;113.502;2022-11-09T13:39:50;-6.60;61.62
75838;SHT30;64480;52.040;113.502;2022-11-09T13:43:14;-6.54;62.06
75838;SHT30;64480;52.040;113.502;2022-11-09T13:46:38;-6.58;61.50
75838;SHT30;64480;52.040;113.502;2022-11-09T13:49:59;-6.58;62.17
75838;SHT30;64480;52.040;113.502;2022-11-09T13:57:02;-6.57;60.99
75838;SHT30;64480;52.040;113.502;2022-11-09T14:00:25;-6.70;60.71
75838;SHT30;64480;52.040;113.502;2022-11-09T14:03:49;-6.80;60.98
75838;SHT30;64480;52.040;113.502;2022-11-09T14:07:26;-6.81;61.20
75838;SHT30;64480;52.040;113.502;2022-11-09T14:15:08;-6.98;61.56
75838;SHT30;64480;52.040;113.502;2022-11-09T14:19:05;-7.08;62.78
75838;SHT30;64480;52.040;113.502;2022-11-09T14:22:32;-7.11;62.83
75838;SHT30;64480;52.040;113.502;2022-11-09T14:25:55;-7.18;63.12
75838;SHT30;64480;52.040;113.502;2022-11-09T14:29:24;-7.20;62.70
75838;SHT30;64480;52.040;113.502;2022-11-09T14:32:51;-7.27;62.82
75838;SHT30;64480;52.040;113.502;2022-11-09T14:36:14;-7.29;62.62
75838;SHT30;64480;52.040;113.502;2022-11-09T14:39:37;-7.30;62.67
75838;SHT30;64480;52.040;113.502;2022-11-09T14:47:26;-7.52;63.10
75838;SHT30;64480;52.040;113.502;2022-11-09T14:50:58;-7.47;63.75
75838;SHT30;64480;52.040;113.502;2022-11-09T14:54:47;-7.52;63.24
75838;SHT30;64480;52.040;113.502;2022-11-09T14:58:22;-7.61;63.09
75838;SHT30;64480;52.040;113.502;2022-11-09T15:02:04;-7.61;63.01
75838;SHT30;64480;52.040;113.502;2022-11-09T15:05:34;-7.73;63.32
75838;SHT30;64480;52.040;113.502;2022-11-09T15:08:59;-7.91;63.52
75838;SHT30;64480;52.040;113.502;2022-11-09T15:12:22;-7.98;63.67
75838;SHT30;64480;52.040;113.502;2022-11-09T15:15:50;-7.99;63.85
75838;SHT30;64480;52.040;113.502;2022-11-09T15:19:50;-8.12;63.75
75838;SHT30;64480;52.040;113.502;2022-11-09T15:24:25;-8.26;64.15
75838;SHT30;64480;52.040;113.502;2022-11-09T15:31:36;-8.22;63.87
75838;SHT30;64480;52.040;113.502;2022-11-09T15:35:12;-8.12;63.31
75838;SHT30;64480;52.040;113.502;2022-11-09T15:39:04;-8.30;63.62
75838;SHT30;64480;52.040;113.502;2022-11-09T15:42:32;-8.47;63.73
75838;SHT30;64480;52.040;113.502;2022-11-09T15:46:06;-8.52;63.65
75838;SHT30;64480;52.040;113.502;2022-11-09T15:49:40;-8.54;63.31
75838;SHT30;64480;52.040;113.502;2022-11-09T15:53:02;-8.58;64.07
75838;SHT30;64480;52.040;113.502;2022-11-09T15:56:23;-8.54;63.87
75838;SHT30;64480;52.040;113.502;2022-11-09T15:59:46;-8.36;63.29
75838;SHT30;64480;52.040;113.502;2022-11-09T16:03:10;-8.40;63.29
75838;SHT30;64480;52.040;113.502;2022-11-09T16:06:35;-8.50;64.22
75838;SHT30;64480;52.040;113.502;2022-11-09T16:10:17;-8.61;64.11
75838;SHT30;64480;52.040;113.502;2022-11-09T16:14:24;-8.52;64.46
75838;SHT30;64480;52.040;113.502;2022-11-09T16:17:45;-8.55;64.72
75838;SHT30;64480;52.040;113.502;2022-11-09T16:21:12;-8.58;64.40
75838;SHT30;64480;52.040;113.502;2022-11-09T16:24:34;-8.64;64.77
75838;SHT30;64480;52.040;113.502;2022-11-09T16:27:57;-8.64;64.70
75838;SHT30;64480;52.040;113.502;2022-11-09T16:31:19;-8.75;64.86
75838;SHT30;64480;52.040;113.502;2022-11-09T16:34:54;-8.92;65.48
75838;SHT30;64480;52.040;113.502;2022-11-09T16:38:29;-8.97;66.20
75838;SHT30;64480;52.040;113.502;2022-11-09T16:41:54;-8.93;66.20
75838;SHT30;64480;52.040;113.502;2022-11-09T16:45:16;-8.89;64.77
75838;SHT30;64480;52.040;113.502;2022-11-09T16:48:41;-9.02;65.17
75838;SHT30;64480;52.040;113.502;2022-11-09T16:52:03;-9.00;65.10
75838;SHT30;64480;52.040;113.502;2022-11-09T16:55:25;-8.95;64.74
75838;SHT30;64480;52.040;113.502;2022-11-09T16:58:55;-8.97;63.74
75838;SHT30;64480;52.040;113.502;2022-11-09T17:02:17;-9.03;63.91
75838;SHT30;64480;52.040;113.502;2022-11-09T17:05:41;-9.10;63.96
75838;SHT30;64480;52.040;113.502;2022-11-09T17:09:05;-9.07;64.44
75838;SHT30;64480;52.040;113.502;2022-11-09T17:12:29;-9.07;63.94
75838;SHT30;64480;52.040;113.502;2022-11-09T17:15:51;-9.19;64.12
75838;SHT30;64480;52.040;113.502;2022-11-09T17:19:13;-9.31;64.76
75838;SHT30;64480;52.040;113.502;2022-11-09T17:22:35;-9.37;65.40
75838;SHT30;64480;52.040;113.502;2022-11-09T17:26:02;-9.28;65.37
75838;SHT30;64480;52.040;113.502;2022-11-09T17:29:31;-9.34;64.64
75838;SHT30;64480;52.040;113.502;2022-11-09T17:33:12;-9.41;64.76
75838;SHT30;64480;52.040;113.502;2022-11-09T17:36:33;-9.47;65.19
75838;SHT30;64480;52.040;113.502;2022-11-09T17:40:15;-9.42;63.96
75838;SHT30;64480;52.040;113.502;2022-11-09T17:43:43;-9.50;63.72
75838;SHT30;64480;52.040;113.502;2022-11-09T17:47:05;-9.59;63.95
75838;SHT30;64480;52.040;113.502;2022-11-09T17:50:27;-9.63;64.12
75838;SHT30;64480;52.040;113.502;2022-11-09T17:53:52;-9.66;63.92
75838;SHT30;64480;52.040;113.502;2022-11-09T17:57:17;-10.00;64.89
75838;SHT30;64480;52.040;113.502;2022-11-09T18:00:39;-9.97;65.27
75838;SHT30;64480;52.040;113.502;2022-11-09T18:04:03;-9.90;64.92
75838;SHT30;64480;52.040;113.502;2022-11-09T18:07:29;-9.85;64.58
75838;SHT30;64480;52.040;113.502;2022-11-09T18:10:51;-9.76;64.12
75838;SHT30;64480;52.040;113.502;2022-11-09T18:14:15;-9.72;64.05
75838;SHT30;64480;52.040;113.502;2022-11-09T18:17:42;-9.65;63.98
75838;SHT30;64480;52.040;113.502;2022-11-09T18:26:26;-9.69;63.46
75838;SHT30;64480;52.040;113.502;2022-11-09T18:30:12;-9.62;63.23
75838;SHT30;64480;52.040;113.502;2022-11-09T18:33:41;-9.66;62.82
75838;SHT30;64480;52.040;113.502;2022-11-09T18:42:39;-9.62;62.57
75838;SHT30;64480;52.040;113.502;2022-11-09T18:46:34;-9.68;62.72
75838;SHT30;64480;52.040;113.502;2022-11-09T18:50:25;-9.71;62.73
75838;SHT30;64480;52.040;113.502;2022-11-09T18:54:35;-9.76;63.33
75838;SHT30;64480;52.040;113.502;2022-11-09T18:58:56;-9.73;63.19
75838;SHT30;64480;52.040;113.502;2022-11-09T19:02:30;-9.86;63.57
75838;SHT30;64480;52.040;113.502;2022-11-09T19:10:00;-9.80;64.12
75838;SHT30;64480;52.040;113.502;2022-11-09T19:13:22;-9.79;64.43
75838;SHT30;64480;52.040;113.502;2022-11-09T19:16:44;-9.86;64.39
75838;SHT30;64480;52.040;113.502;2022-11-09T19:20:05;-9.97;65.00
75838;SHT30;64480;52.040;113.502;2022-11-09T19:23:27;-10.07;65.64
75838;SHT30;64480;52.040;113.502;2022-11-09T19:26:52;-10.10;65.70
75838;SHT30;64480;52.040;113.502;2022-11-09T19:30:15;-10.03;64.96
75838;SHT30;64480;52.040;113.502;2022-11-09T19:33:37;-10.06;64.36
75838;SHT30;64480;52.040;113.502;2022-11-09T19:36:58;-10.12;64.27
75838;SHT30;64480;52.040;113.502;2022-11-09T19:40:20;-10.09;63.73
75838;SHT30;64480;52.040;113.502;2022-11-09T19:43:42;-10.06;64.02
75838;SHT30;64480;52.040;113.502;2022-11-09T19:47:03;-10.12;63.67
75838;SHT30;64480;52.040;113.502;2022-11-09T19:50:28;-10.23;63.78
75838;SHT30;64480;52.040;113.502;2022-11-09T19:53:56;-10.35;64.07
75838;SHT30;64480;52.040;113.502;2022-11-09T19:57:20;-10.49;64.64
75838;SHT30;64480;52.040;113.502;2022-11-09T20:00:45;-10.52;65.10
75838;SHT30;64480;52.040;113.502;2022-11-09T20:04:10;-10.61;65.23
75838;SHT30;64480;52.040;113.502;2022-11-09T20:07:31;-10.46;64.91
75838;SHT30;64480;52.040;113.502;2022-11-09T20:10:54;-10.49;62.19
75838;SHT30;64480;52.040;113.502;2022-11-09T20:14:15;-10.52;61.81
75838;SHT30;64480;52.040;113.502;2022-11-09T20:17:39;-10.52;60.92
75838;SHT30;64480;52.040;113.502;2022-11-09T20:21:01;-10.55;60.71
75838;SHT30;64480;52.040;113.502;2022-11-09T20:24:23;-10.61;60.67
75838;SHT30;64480;52.040;113.502;2022-11-09T20:27:44;-10.55;62.30
75838;SHT30;64480;52.040;113.502;2022-11-09T20:31:14;-10.65;62.90
75838;SHT30;64480;52.040;113.502;2022-11-09T20:34:36;-10.65;63.49
75838;SHT30;64480;52.040;113.502;2022-11-09T20:37:57;-10.68;63.36
75838;SHT30;64480;52.040;113.502;2022-11-09T20:41:22;-10.66;63.28
75838;SHT30;64480;52.040;113.502;2022-11-09T20:44:47;-10.75;63.38
75838;SHT30;64480;52.040;113.502;2022-11-09T20:48:08;-10.73;63.45
75838;SHT30;64480;52.040;113.502;2022-11-09T20:51:44;-10.82;63.34
75838;SHT30;64480;52.040;113.502;2022-11-09T20:55:06;-10.93;63.50
75838;SHT30;64480;52.040;113.502;2022-11-09T20:58:28;-10.96;64.01
75838;SHT30;64480;52.040;113.502;2022-11-09T21:01:53;-10.84;63.61
75838;SHT30;64480;52.040;113.502;2022-11-09T21:05:15;-10.77;62.88
75838;SHT30;64480;52.040;113.502;2022-11-09T21:08:43;-10.79;61.28
75838;SHT30;64480;52.040;113.502;2022-11-09T21:12:05;-10.96;60.67
75838;SHT30;64480;52.040;113.502;2022-11-09T21:15:41;-11.17;61.54
75838;SHT30;64480;52.040;113.502;2022-11-09T21:23:36;-11.53;62.32
75838;SHT30;64480;52.040;113.502;2022-11-09T21:27:16;-11.53;63.07
75838;SHT30;64480;52.040;113.502;2022-11-09T21:30:59;-11.25;62.74
75838;SHT30;64480;52.040;113.502;2022-11-09T21:34:21;-11.16;62.55
75838;SHT30;64480;52.040;113.502;2022-11-09T21:37:42;-11.01;62.88
75838;SHT30;64480;52.040;113.502;2022-11-09T21:41:06;-10.89;62.54
75838;SHT30;64480;52.040;113.502;2022-11-09T21:44:45;-10.86;63.07
75838;SHT30;64480;52.040;113.502;2022-11-09T21:48:07;-10.75;62.98
75838;SHT30;64480;52.040;113.502;2022-11-09T21:51:55;-10.69;62.06
75838;SHT30;64480;52.040;113.502;2022-11-09T21:55:51;-10.55;62.11
75838;SHT30;64480;52.040;113.502;2022-11-09T21:59:13;-10.61;62.26
75838;SHT30;64480;52.040;113.502;2022-11-09T22:02:34;-10.51;62.10
75838;SHT30;64480;52.040;113.502;2022-11-09T22:05:56;-10.44;62.34
75838;SHT30;64480;52.040;113.502;2022-11-09T22:09:17;-10.31;61.58
75838;SHT30;64480;52.040;113.502;2022-11-09T22:12:39;-10.44;61.66
75838;SHT30;64480;52.040;113.502;2022-11-09T22:16:20;-10.40;61.50
75838;SHT30;64480;52.040;113.502;2022-11-09T22:19:41;-10.34;61.94
75838;SHT30;64480;52.040;113.502;2022-11-09T22:23:21;-10.46;62.33
75838;SHT30;64480;52.040;113.502;2022-11-09T22:26:43;-10.38;62.44
75838;SHT30;64480;52.040;113.502;2022-11-09T22:30:05;-10.42;62.48
75838;SHT30;64480;52.040;113.502;2022-11-09T22:33:28;-10.44;62.24
75838;SHT30;64480;52.040;113.502;2022-11-09T22:36:50;-10.31;62.20
75838;SHT30;64480;52.040;113.502;2022-11-09T22:40:12;-10.33;61.31
75838;SHT30;64480;52.040;113.502;2022-11-09T22:43:34;-10.33;61.60
75838;SHT30;64480;52.040;113.502;2022-11-09T22:46:57;-10.63;59.56
75838;SHT30;64480;52.040;113.502;2022-11-09T22:50:18;-10.80;59.81
75838;SHT30;64480;52.040;113.502;2022-11-09T22:53:41;-10.86;60.83
75838;SHT30;64480;52.040;113.502;2022-11-09T22:57:05;-10.87;60.75
75838;SHT30;64480;52.040;113.502;2022-11-09T23:00:27;-10.93;60.17
75838;SHT30;64480;52.040;113.502;2022-11-09T23:03:48;-10.91;60.20
75838;SHT30;64480;52.040;113.502;2022-11-09T23:07:10;-10.95;60.59
75838;SHT30;64480;52.040;113.502;2022-11-09T23:10:31;-10.80;61.21
75838;SHT30;64480;52.040;113.502;2022-11-09T23:13:54;-10.69;61.02
75838;SHT30;64480;52.040;113.502;2022-11-09T23:17:16;-10.66;60.84
75838;SHT30;64480;52.040;113.502;2022-11-09T23:20:58;-10.61;61.05
75838;SHT30;64480;52.040;113.502;2022-11-09T23:24:22;-10.49;60.60
75838;SHT30;64480;52.040;113.502;2022-11-09T23:28:02;-10.53;60.79
75838;SHT30;64480;52.040;113.502;2022-11-09T23:31:42;-10.52;60.81
75838;SHT30;64480;52.040;113.502;2022-11-09T23:35:05;-10.59;60.93
75838;SHT30;64480;52.040;113.502;2022-11-09T23:38:27;-10.61;61.44
75838;SHT30;64480;52.040;113.502;2022-11-09T23:41:49;-10.61;61.96
75838;SHT30;64480;52.040;113.502;2022-11-09T23:45:10;-10.52;62.17
75838;SHT30;64480;52.040;113.502;2022-11-09T23:48:32;-10.55;61.43
75838;SHT30;64480;52.040;113.502;2022-11-09T23:51:53;-10.62;61.89
75838;SHT30;64480;52.040;113.502;2022-11-09T23:55:15;-10.52;62.34
75838;SHT30;64480;52.040;113.502;2022-11-09T23:58:37;-10.34;61.77
